sensor_id;sensor_type;location;lat;lon;timestamp;pressure;altitude;pressure_sealevel;temperature;humidity
18527;BME280;9393;42.158;24.748;2023-02-20T00:02:29;99684.94;;;15.87;46.09
18527;BME280;9393;42.158;24.748;2023-02-20T00:05:34;99691.97;;;15.95;45.93
18527;BME280;9393;42.158;24.748;2023-02-20T00:08:39;99691.47;;;15.99;45.79
18527;BME280;9393;42.158;24.748;2023-02-20T00:11:43;99697.06;;;15.96;45.59
18527;BME280;9393;42.158;24.748;2023-02-20T00:14:48;99689.84;;;15.90;45.73
18527;BME280;9393;42.158;24.748;2023-02-20T00:17:51;99705.97;;;15.87;45.61
18527;BME280;9393;42.158;24.748;2023-02-20T00:20:55;99707.91;;;15.93;45.47
18527;BME280;9393;42.158;24.748;2023-02-20T00:24:00;99712.03;;;15.96;45.55
18527;BME280;9393;42.158;24.748;2023-02-20T00:27:04;99711.69;;;15.99;45.45
18527;BME280;9393;42.158;24.748;2023-02-20T00:30:13;99715.94;;;16.00;45.46
18527;BME280;9393;42.158;24.748;2023-02-20T00:33:17;99708.59;;;15.95;45.56
18527;BME280;9393;42.158;24.748;2023-02-20T00:36:23;99721.25;;;15.92;45.36
18527;BME280;9393;42.158;24.748;2023-02-20T00:39:28;99723.06;;;15.91;45.64
18527;BME280;9393;42.158;24.748;2023-02-20T00:42:32;99707.16;;;15.85;45.77
18527;BME280;9393;42.158;24.748;2023-02-20T00:45:36;99710.91;;;15.90;45.55
18527;BME280;9393;42.158;24.748;2023-02-20T00:48:40;99713.41;;;15.76;45.82
18527;BME280;9393;42.158;24.748;2023-02-20T00:52:02;99704.81;;;15.90;45.42
18527;BME280;9393;42.158;24.748;2023-02-20T00:55:08;99712.50;;;15.69;46.04
18527;BME280;9393;42.158;24.748;2023-02-20T00:58:12;99703.19;;;15.89;45.75
18527;BME280;9393;42.158;24.748;2023-02-20T01:01:16;99697.16;;;15.72;45.93
18527;BME280;9393;42.158;24.748;2023-02-20T01:04:19;99702.09;;;15.75;45.95
18527;BME280;9393;42.158;24.748;2023-02-20T01:07:23;99700.47;;;15.74;45.85
18527;BME280;9393;42.158;24.748;2023-02-20T01:10:28;99702.47;;;15.64;46.21
18527;BME280;9393;42.158;24.748;2023-02-20T01:13:32;99708.41;;;15.58;46.26
18527;BME280;9393;42.158;24.748;2023-02-20T01:16:35;99707.59;;;15.41;46.55
18527;BME280;9393;42.158;24.748;2023-02-20T01:19:40;99718.94;;;15.50;46.64
18527;BME280;9393;42.158;24.748;2023-02-20T01:22:43;99715.97;;;15.45;46.68
18527;BME280;9393;42.158;24.748;2023-02-20T01:25:49;99726.16;;;15.48;46.69
18527;BME280;9393;42.158;24.748;2023-02-20T01:28:53;99715.16;;;15.44;46.73
18527;BME280;9393;42.158;24.748;2023-02-20T01:31:57;99719.47;;;15.21;47.59
18527;BME280;9393;42.158;24.748;2023-02-20T01:35:01;99713.75;;;15.01;47.93
18527;BME280;9393;42.158;24.748;2023-02-20T01:38:05;99711.09;;;15.34;47.26
18527;BME280;9393;42.158;24.748;2023-02-20T01:41:11;99728.50;;;15.10;47.67
18527;BME280;9393;42.158;24.748;2023-02-20T01:44:22;99723.59;;;15.24;47.50
18527;BME280;9393;42.158;24.748;2023-02-20T01:47:27;99726.03;;;15.17;47.65
18527;BME280;9393;42.158;24.748;2023-02-20T01:50:36;99730.19;;;14.95;48.08
18527;BME280;9393;42.158;24.748;2023-02-20T01:53:42;99724.09;;;14.87;48.42
18527;BME280;9393;42.158;24.748;2023-02-20T01:56:48;99728.69;;;15.01;48.06
18527;BME280;9393;42.158;24.748;2023-02-20T01:59:54;99735.59;;;14.86;48.58
18527;BME280;9393;42.158;24.748;2023-02-20T02:03:03;99737.88;;;14.89;48.37
18527;BME280;9393;42.158;24.748;2023-02-20T02:06:11;99742.16;;;14.98;48.30
18527;BME280;9393;42.158;24.748;2023-02-20T02:09:22;99750.53;;;14.85;48.73
18527;BME280;9393;42.158;24.748;2023-02-20T02:12:30;99754.94;;;14.77;48.89
18527;BME280;9393;42.158;24.748;2023-02-20T02:15:34;99763.63;;;14.93;48.54
18527;BME280;9393;42.158;24.748;2023-02-20T02:18:45;99757.56;;;14.69;49.09
18527;BME280;9393;42.158;24.748;2023-02-20T02:22:24;99755.09;;;14.83;48.88
18527;BME280;9393;42.158;24.748;2023-02-20T02:25:40;99758.22;;;14.71;49.16
18527;BME280;9393;42.158;24.748;2023-02-20T02:29:17;99765.94;;;14.64;49.56
18527;BME280;9393;42.158;24.748;2023-02-20T02:36:20;99775.78;;;14.78;49.17
18527;BME280;9393;42.158;24.748;2023-02-20T02:39:34;99785.00;;;14.82;49.24
18527;BME280;9393;42.158;24.748;2023-02-20T02:42:46;99790.19;;;14.58;49.89
18527;BME280;9393;42.158;24.748;2023-02-20T02:45:53;99794.59;;;14.49;50.32
18527;BME280;9393;42.158;24.748;2023-02-20T02:49:03;99787.19;;;14.45;50.47
18527;BME280;9393;42.158;24.748;2023-02-20T02:52:11;99785.56;;;14.52;50.28
18527;BME280;9393;42.158;24.748;2023-02-20T02:55:36;99812.03;;;14.16;51.30
18527;BME280;9393;42.158;24.748;2023-02-20T02:58:40;99814.66;;;14.25;51.32
18527;BME280;9393;42.158;24.748;2023-02-20T03:01:47;99814.03;;;14.31;51.32
18527;BME280;9393;42.158;24.748;2023-02-20T03:04:53;99813.22;;;14.30;51.51
18527;BME280;9393;42.158;24.748;2023-02-20T03:08:00;99819.50;;;14.37;51.44
18527;BME280;9393;42.158;24.748;2023-02-20T03:11:06;99824.31;;;14.16;52.02
18527;BME280;9393;42.158;24.748;2023-02-20T03:14:13;99823.13;;;14.10;52.36
18527;BME280;9393;42.158;24.748;2023-02-20T03:17:39;99838.44;;;14.31;51.96
18527;BME280;9393;42.158;24.748;2023-02-20T03:20:47;99837.94;;;14.28;52.22
18527;BME280;9393;42.158;24.748;2023-02-20T03:23:57;99844.50;;;14.24;52.37
18527;BME280;9393;42.158;24.748;2023-02-20T03:27:03;99846.03;;;14.34;52.23
18527;BME280;9393;42.158;24.748;2023-02-20T03:30:12;99842.91;;;14.31;52.41
18527;BME280;9393;42.158;24.748;2023-02-20T03:33:20;99833.19;;;14.23;52.46
18527;BME280;9393;42.158;24.748;2023-02-20T03:36:46;99846.44;;;14.22;52.85
18527;BME280;9393;42.158;24.748;2023-02-20T03:40:15;99853.81;;;14.18;52.67
18527;BME280;9393;42.158;24.748;2023-02-20T03:43:39;99856.31;;;14.28;52.59
18527;BME280;9393;42.158;24.748;2023-02-20T03:46:46;99866.72;;;14.37;52.37
18527;BME280;9393;42.158;24.748;2023-02-20T03:49:53;99870.38;;;14.18;52.76
18527;BME280;9393;42.158;24.748;2023-02-20T03:52:58;99877.66;;;14.33;52.61
18527;BME280;9393;42.158;24.748;2023-02-20T03:56:08;99871.16;;;14.11;53.18
18527;BME280;9393;42.158;24.748;2023-02-20T03:59:15;99887.56;;;14.13;53.17
18527;BME280;9393;42.158;24.748;2023-02-20T04:02:23;99880.50;;;14.13;52.94
18527;BME280;9393;42.158;24.748;2023-02-20T04:05:33;99889.09;;;14.24;52.99
18527;BME280;9393;42.158;24.748;2023-02-20T04:08:42;99891.22;;;14.20;53.01
18527;BME280;9393;42.158;24.748;2023-02-20T04:11:51;99897.31;;;14.29;52.84
18527;BME280;9393;42.158;24.748;2023-02-20T04:14:58;99893.47;;;14.15;53.33
18527;BME280;9393;42.158;24.748;2023-02-20T04:18:06;99889.25;;;14.22;53.36
18527;BME280;9393;42.158;24.748;2023-02-20T04:21:17;99884.84;;;14.23;53.32
18527;BME280;9393;42.158;24.748;2023-02-20T04:24:28;99881.19;;;14.15;53.63
18527;BME280;9393;42.158;24.748;2023-02-20T04:27:33;99889.69;;;14.09;53.48
18527;BME280;9393;42.158;24.748;2023-02-20T04:30:38;99888.28;;;13.97;53.89
18527;BME280;9393;42.158;24.748;2023-02-20T04:33:42;99882.34;;;14.21;52.92
18527;BME280;9393;42.158;24.748;2023-02-20T04:37:00;99880.81;;;14.10;52.71
18527;BME280;9393;42.158;24.748;2023-02-20T04:40:08;99879.44;;;13.98;52.84
18527;BME280;9393;42.158;24.748;2023-02-20T04:43:13;99880.00;;;13.84;52.92
18527;BME280;9393;42.158;24.748;2023-02-20T04:46:18;99874.56;;;13.78;53.13
18527;BME280;9393;42.158;24.748;2023-02-20T04:49:21;99877.28;;;13.68;53.12
18527;BME280;9393;42.158;24.748;2023-02-20T04:52:28;99881.38;;;13.96;52.62
18527;BME280;9393;42.158;24.748;2023-02-20T04:55:32;99868.63;;;13.76;52.63
18527;BME280;9393;42.158;24.748;2023-02-20T04:58:46;99891.69;;;13.64;52.10
18527;BME280;9393;42.158;24.748;2023-02-20T05:01:55;99894.97;;;13.48;52.25
18527;BME280;9393;42.158;24.748;2023-02-20T05:05:02;99891.47;;;13.57;51.95
18527;BME280;9393;42.158;24.748;2023-02-20T05:08:07;99896.41;;;13.43;52.00
18527;BME280;9393;42.158;24.748;2023-02-20T05:11:10;99899.25;;;13.49;51.64
18527;BME280;9393;42.158;24.748;2023-02-20T05:14:16;99902.09;;;13.56;51.60
18527;BME280;9393;42.158;24.748;2023-02-20T05:17:20;99901.97;;;13.40;51.76
18527;BME280;9393;42.158;24.748;2023-02-20T05:20:23;99903.00;;;13.47;51.70
18527;BME280;9393;42.158;24.748;2023-02-20T05:23:47;99905.19;;;13.51;51.97
18527;BME280;9393;42.158;24.748;2023-02-20T05:26:52;99907.88;;;13.42;51.98
18527;BME280;9393;42.158;24.748;2023-02-20T05:29:58;99919.69;;;13.46;51.74
18527;BME280;9393;42.158;24.748;2023-02-20T05:33:02;99924.94;;;13.28;52.21
18527;BME280;9393;42.158;24.748;2023-02-20T05:36:06;99936.38;;;13.45;52.08
18527;BME280;9393;42.158;24.748;2023-02-20T05:39:10;99954.44;;;13.48;51.76
18527;BME280;9393;42.158;24.748;2023-02-20T05:42:14;99959.72;;;13.38;52.17
18527;BME280;9393;42.158;24.748;2023-02-20T05:45:20;99968.50;;;13.29;52.29
18527;BME280;9393;42.158;24.748;2023-02-20T05:48:23;99962.34;;;13.21;52.18
18527;BME280;9393;42.158;24.748;2023-02-20T05:51:28;99977.09;;;13.39;51.71
18527;BME280;9393;42.158;24.748;2023-02-20T05:54:35;99978.69;;;13.50;51.40
18527;BME280;9393;42.158;24.748;2023-02-20T05:57:38;99993.72;;;13.65;51.06
18527;BME280;9393;42.158;24.748;2023-02-20T06:00:43;99996.41;;;13.56;51.32
18527;BME280;9393;42.158;24.748;2023-02-20T06:03:47;99991.56;;;13.61;51.53
18527;BME280;9393;42.158;24.748;2023-02-20T06:06:51;99996.63;;;13.45;51.83
18527;BME280;9393;42.158;24.748;2023-02-20T06:09:55;99997.56;;;13.71;50.78
18527;BME280;9393;42.158;24.748;2023-02-20T06:12:59;100008.88;;;13.89;50.08
18527;BME280;9393;42.158;24.748;2023-02-20T06:16:05;100021.75;;;14.26;49.54
18527;BME280;9393;42.158;24.748;2023-02-20T06:19:09;100025.13;;;14.36;49.07
18527;BME280;9393;42.158;24.748;2023-02-20T06:22:15;100015.25;;;14.56;48.13
18527;BME280;9393;42.158;24.748;2023-02-20T06:25:19;100033.16;;;14.60;47.31
18527;BME280;9393;42.158;24.748;2023-02-20T06:28:23;100038.78;;;15.07;45.84
18527;BME280;9393;42.158;24.748;2023-02-20T06:31:28;100047.22;;;15.19;45.04
18527;BME280;9393;42.158;24.748;2023-02-20T06:34:32;100060.13;;;15.46;44.30
18527;BME280;9393;42.158;24.748;2023-02-20T06:37:37;100063.97;;;15.60;44.08
18527;BME280;9393;42.158;24.748;2023-02-20T06:40:41;100055.75;;;15.79;43.46
18527;BME280;9393;42.158;24.748;2023-02-20T06:43:45;100051.19;;;15.31;43.86
18527;BME280;9393;42.158;24.748;2023-02-20T06:46:50;100051.50;;;15.86;42.91
18527;BME280;9393;42.158;24.748;2023-02-20T06:49:54;100042.31;;;16.14;42.56
18527;BME280;9393;42.158;24.748;2023-02-20T06:52:58;100036.88;;;16.24;42.47
18527;BME280;9393;42.158;24.748;2023-02-20T06:56:05;100025.19;;;16.18;42.97
18527;BME280;9393;42.158;24.748;2023-02-20T06:59:09;100020.72;;;16.43;42.41
18527;BME280;9393;42.158;24.748;2023-02-20T07:02:15;100019.28;;;16.41;42.37
18527;BME280;9393;42.158;24.748;2023-02-20T07:05:20;100008.75;;;16.25;42.60
18527;BME280;9393;42.158;24.748;2023-02-20T07:08:24;100015.28;;;16.53;41.83
18527;BME280;9393;42.158;24.748;2023-02-20T07:11:27;100008.50;;;16.75;41.37
18527;BME280;9393;42.158;24.748;2023-02-20T07:14:31;100010.94;;;16.84;40.84
18527;BME280;9393;42.158;24.748;2023-02-20T07:17:36;100016.81;;;17.02;40.44
18527;BME280;9393;42.158;24.748;2023-02-20T07:20:40;100014.34;;;16.93;40.35
18527;BME280;9393;42.158;24.748;2023-02-20T07:23:44;100021.53;;;17.07;40.26
18527;BME280;9393;42.158;24.748;2023-02-20T07:26:48;100021.88;;;17.35;39.60
18527;BME280;9393;42.158;24.748;2023-02-20T07:29:52;100017.03;;;17.24;39.19
18527;BME280;9393;42.158;24.748;2023-02-20T07:32:57;100020.78;;;16.90;39.31
18527;BME280;9393;42.158;24.748;2023-02-20T07:36:01;100030.47;;;16.98;39.10
18527;BME280;9393;42.158;24.748;2023-02-20T07:39:05;100035.16;;;17.18;38.36
18527;BME280;9393;42.158;24.748;2023-02-20T07:42:09;100037.69;;;17.43;37.80
18527;BME280;9393;42.158;24.748;2023-02-20T07:45:22;100050.94;;;17.27;37.66
18527;BME280;9393;42.158;24.748;2023-02-20T07:48:28;100036.78;;;17.58;36.98
18527;BME280;9393;42.158;24.748;2023-02-20T07:51:32;100037.19;;;17.39;36.72
18527;BME280;9393;42.158;24.748;2023-02-20T07:54:36;100029.81;;;17.35;36.17
18527;BME280;9393;42.158;24.748;2023-02-20T07:57:40;100029.06;;;17.57;35.48
18527;BME280;9393;42.158;24.748;2023-02-20T08:00:44;100035.38;;;17.93;35.36
18527;BME280;9393;42.158;24.748;2023-02-20T08:03:49;100031.50;;;18.04;35.26
18527;BME280;9393;42.158;24.748;2023-02-20T08:06:53;100028.22;;;18.39;34.47
18527;BME280;9393;42.158;24.748;2023-02-20T08:09:57;100028.28;;;17.94;34.61
18527;BME280;9393;42.158;24.748;2023-02-20T08:13:01;100032.88;;;17.77;34.41
18527;BME280;9393;42.158;24.748;2023-02-20T08:16:06;100035.94;;;18.03;34.08
18527;BME280;9393;42.158;24.748;2023-02-20T08:19:11;100036.88;;;18.33;33.59
18527;BME280;9393;42.158;24.748;2023-02-20T08:22:16;100028.09;;;18.70;32.45
18527;BME280;9393;42.158;24.748;2023-02-20T08:25:20;100022.03;;;18.47;32.25
18527;BME280;9393;42.158;24.748;2023-02-20T08:28:24;100005.22;;;18.62;31.71
18527;BME280;9393;42.158;24.748;2023-02-20T08:31:28;100024.06;;;18.07;32.06
18527;BME280;9393;42.158;24.748;2023-02-20T08:34:35;100027.28;;;18.32;32.21
18527;BME280;9393;42.158;24.748;2023-02-20T08:37:39;100021.19;;;18.54;32.45
18527;BME280;9393;42.158;24.748;2023-02-20T08:40:43;100010.44;;;18.85;31.78
18527;BME280;9393;42.158;24.748;2023-02-20T08:43:47;100009.47;;;19.07;30.89
18527;BME280;9393;42.158;24.748;2023-02-20T08:46:51;100016.63;;;18.92;30.42
18527;BME280;9393;42.158;24.748;2023-02-20T08:49:56;99989.91;;;18.87;30.08
18527;BME280;9393;42.158;24.748;2023-02-20T08:53:00;99985.44;;;18.88;30.02
18527;BME280;9393;42.158;24.748;2023-02-20T08:56:04;99990.56;;;18.89;30.08
18527;BME280;9393;42.158;24.748;2023-02-20T08:59:08;99991.19;;;18.91;29.51
18527;BME280;9393;42.158;24.748;2023-02-20T09:02:15;99979.66;;;19.13;29.28
18527;BME280;9393;42.158;24.748;2023-02-20T09:05:21;99999.16;;;19.27;28.54
18527;BME280;9393;42.158;24.748;2023-02-20T09:08:25;100004.13;;;19.37;28.60
18527;BME280;9393;42.158;24.748;2023-02-20T09:11:29;100015.69;;;19.50;28.10
18527;BME280;9393;42.158;24.748;2023-02-20T09:14:33;100014.13;;;19.56;26.62
18527;BME280;9393;42.158;24.748;2023-02-20T09:17:37;100015.38;;;19.60;26.46
18527;BME280;9393;42.158;24.748;2023-02-20T09:20:42;100029.13;;;19.91;25.82
18527;BME280;9393;42.158;24.748;2023-02-20T09:23:46;100022.78;;;19.64;25.21
18527;BME280;9393;42.158;24.748;2023-02-20T09:26:50;100049.09;;;19.94;25.62
18527;BME280;9393;42.158;24.748;2023-02-20T09:29:56;100051.25;;;19.84;24.74
18527;BME280;9393;42.158;24.748;2023-02-20T09:33:00;100055.53;;;19.85;25.54
18527;BME280;9393;42.158;24.748;2023-02-20T09:36:06;100030.78;;;19.71;25.06
18527;BME280;9393;42.158;24.748;2023-02-20T09:39:10;100047.66;;;19.70;25.63
18527;BME280;9393;42.158;24.748;2023-02-20T09:42:24;100035.47;;;20.18;25.10
18527;BME280;9393;42.158;24.748;2023-02-20T09:45:32;100024.22;;;19.88;25.57
18527;BME280;9393;42.158;24.748;2023-02-20T09:48:59;100041.03;;;20.02;24.22
18527;BME280;9393;42.158;24.748;2023-02-20T09:52:12;100030.91;;;19.84;23.42
18527;BME280;9393;42.158;24.748;2023-02-20T09:55:19;100032.63;;;20.20;23.37
18527;BME280;9393;42.158;24.748;2023-02-20T09:58:27;100042.25;;;19.99;22.70
18527;BME280;9393;42.158;24.748;2023-02-20T10:01:43;100026.09;;;20.15;22.40
18527;BME280;9393;42.158;24.748;2023-02-20T10:04:50;100004.03;;;20.08;22.03
18527;BME280;9393;42.158;24.748;2023-02-20T10:08:04;100019.69;;;20.10;21.92
18527;BME280;9393;42.158;24.748;2023-02-20T10:11:23;100019.41;;;19.98;21.69
18527;BME280;9393;42.158;24.748;2023-02-20T10:14:59;100012.47;;;19.97;22.02
18527;BME280;9393;42.158;24.748;2023-02-20T10:18:16;100003.75;;;20.03;21.31
18527;BME280;9393;42.158;24.748;2023-02-20T10:21:39;99989.81;;;19.88;21.61
18527;BME280;9393;42.158;24.748;2023-02-20T10:24:58;100010.09;;;20.02;21.45
18527;BME280;9393;42.158;24.748;2023-02-20T10:28:07;100000.41;;;20.37;21.32
18527;BME280;9393;42.158;24.748;2023-02-20T10:31:25;100015.34;;;20.51;20.84
18527;BME280;9393;42.158;24.748;2023-02-20T10:34:36;99998.28;;;20.05;20.43
18527;BME280;9393;42.158;24.748;2023-02-20T10:37:43;99984.25;;;20.32;20.60
18527;BME280;9393;42.158;24.748;2023-02-20T10:40:59;99998.81;;;20.22;20.60
18527;BME280;9393;42.158;24.748;2023-02-20T10:44:11;99986.31;;;20.30;20.53
18527;BME280;9393;42.158;24.748;2023-02-20T10:47:21;99999.06;;;19.99;20.93
18527;BME280;9393;42.158;24.748;2023-02-20T10:50:30;99994.34;;;20.22;20.93
18527;BME280;9393;42.158;24.748;2023-02-20T10:53:39;99994.59;;;20.55;20.35
18527;BME280;9393;42.158;24.748;2023-02-20T10:56:51;99999.22;;;20.18;20.44
18527;BME280;9393;42.158;24.748;2023-02-20T11:00:02;100002.72;;;20.47;20.57
18527;BME280;9393;42.158;24.748;2023-02-20T11:03:10;99996.81;;;20.51;20.79
18527;BME280;9393;42.158;24.748;2023-02-20T11:06:19;99993.38;;;20.51;20.75
18527;BME280;9393;42.158;24.748;2023-02-20T11:09:25;99985.97;;;20.18;20.86
18527;BME280;9393;42.158;24.748;2023-02-20T11:12:33;99983.56;;;20.24;20.90
18527;BME280;9393;42.158;24.748;2023-02-20T11:15:42;99978.94;;;20.60;20.82
18527;BME280;9393;42.158;24.748;2023-02-20T11:18:46;99987.19;;;20.78;20.45
18527;BME280;9393;42.158;24.748;2023-02-20T11:21:51;99970.00;;;20.67;20.07
18527;BME280;9393;42.158;24.748;2023-02-20T11:25:14;99974.88;;;20.30;20.23
18527;BME280;9393;42.158;24.748;2023-02-20T11:28:22;99964.38;;;20.90;19.92
18527;BME280;9393;42.158;24.748;2023-02-20T11:31:28;99970.44;;;21.12;20.10
18527;BME280;9393;42.158;24.748;2023-02-20T11:34:33;99972.94;;;21.33;19.65
18527;BME280;9393;42.158;24.748;2023-02-20T11:37:37;99975.81;;;21.45;19.50
18527;BME280;9393;42.158;24.748;2023-02-20T11:41:06;99981.16;;;21.71;19.68
18527;BME280;9393;42.158;24.748;2023-02-20T11:44:21;99977.00;;;21.23;19.43
18527;BME280;9393;42.158;24.748;2023-02-20T11:47:26;99981.31;;;20.89;19.98
18527;BME280;9393;42.158;24.748;2023-02-20T11:50:37;99990.31;;;20.95;20.40
18527;BME280;9393;42.158;24.748;2023-02-20T11:53:41;99983.31;;;21.22;20.04
18527;BME280;9393;42.158;24.748;2023-02-20T11:56:54;99976.94;;;21.09;20.21
18527;BME280;9393;42.158;24.748;2023-02-20T12:00:13;99995.13;;;21.19;20.16
18527;BME280;9393;42.158;24.748;2023-02-20T12:03:20;99982.69;;;21.20;20.60
18527;BME280;9393;42.158;24.748;2023-02-20T12:06:38;99978.03;;;21.28;20.44
18527;BME280;9393;42.158;24.748;2023-02-20T12:09:44;99974.09;;;21.17;20.28
18527;BME280;9393;42.158;24.748;2023-02-20T12:12:51;99980.34;;;21.51;19.90
18527;BME280;9393;42.158;24.748;2023-02-20T12:16:05;99980.97;;;21.05;20.10
18527;BME280;9393;42.158;24.748;2023-02-20T12:19:17;99972.38;;;21.03;20.49
18527;BME280;9393;42.158;24.748;2023-02-20T12:22:31;99979.84;;;21.28;20.22
18527;BME280;9393;42.158;24.748;2023-02-20T12:25:47;99985.56;;;21.25;20.38
18527;BME280;9393;42.158;24.748;2023-02-20T12:29:05;99983.72;;;21.25;20.82
18527;BME280;9393;42.158;24.748;2023-02-20T12:32:24;99976.22;;;21.42;20.41
18527;BME280;9393;42.158;24.748;2023-02-20T12:35:35;99974.22;;;21.57;20.42
18527;BME280;9393;42.158;24.748;2023-02-20T12:38:47;99974.03;;;21.72;20.13
18527;BME280;9393;42.158;24.748;2023-02-20T12:42:05;99980.47;;;21.23;20.15
18527;BME280;9393;42.158;24.748;2023-02-20T12:45:18;99974.78;;;21.33;20.11
18527;BME280;9393;42.158;24.748;2023-02-20T12:48:32;99974.09;;;21.11;20.32
18527;BME280;9393;42.158;24.748;2023-02-20T12:51:47;99959.19;;;21.10;20.49
18527;BME280;9393;42.158;24.748;2023-02-20T12:54:56;99965.47;;;21.02;20.62
18527;BME280;9393;42.158;24.748;2023-02-20T12:58:11;99970.13;;;21.00;20.61
18527;BME280;9393;42.158;24.748;2023-02-20T13:01:18;99962.19;;;21.00;20.81
18527;BME280;9393;42.158;24.748;2023-02-20T13:04:43;99964.75;;;21.22;20.39
18527;BME280;9393;42.158;24.748;2023-02-20T13:07:51;99966.25;;;20.96;20.52
18527;BME280;9393;42.158;24.748;2023-02-20T13:10:58;99958.72;;;21.00;20.95
18527;BME280;9393;42.158;24.748;2023-02-20T13:14:13;99952.81;;;20.98;20.75
18527;BME280;9393;42.158;24.748;2023-02-20T13:17:28;99952.78;;;20.91;20.88
18527;BME280;9393;42.158;24.748;2023-02-20T13:20:39;99950.38;;;21.03;20.41
18527;BME280;9393;42.158;24.748;2023-02-20T13:23:45;99961.00;;;21.09;20.68
18527;BME280;9393;42.158;24.748;2023-02-20T13:26:52;99966.09;;;21.04;20.76
18527;BME280;9393;42.158;24.748;2023-02-20T13:29:59;99960.06;;;20.83;21.12
18527;BME280;9393;42.158;24.748;2023-02-20T13:33:18;99974.91;;;20.71;20.72
18527;BME280;9393;42.158;24.748;2023-02-20T13:36:44;99974.84;;;20.98;20.46
18527;BME280;9393;42.158;24.748;2023-02-20T13:39:48;99980.28;;;20.84;20.39
18527;BME280;9393;42.158;24.748;2023-02-20T13:43:19;99982.56;;;20.52;20.53
18527;BME280;9393;42.158;24.748;2023-02-20T13:46:27;99974.69;;;20.72;20.72
18527;BME280;9393;42.158;24.748;2023-02-20T13:49:54;99968.16;;;20.61;20.55
18527;BME280;9393;42.158;24.748;2023-02-20T13:53:04;99985.91;;;20.33;20.70
18527;BME280;9393;42.158;24.748;2023-02-20T13:56:14;99990.06;;;20.49;20.41
18527;BME280;9393;42.158;24.748;2023-02-20T13:59:19;99980.34;;;20.56;20.40
18527;BME280;9393;42.158;24.748;2023-02-20T14:02:23;99987.25;;;20.50;20.73
18527;BME280;9393;42.158;24.748;2023-02-20T14:05:31;99984.31;;;20.39;20.64
18527;BME280;9393;42.158;24.748;2023-02-20T14:08:38;99984.63;;;20.57;20.58
18527;BME280;9393;42.158;24.748;2023-02-20T14:11:43;99988.47;;;20.48;20.54
18527;BME280;9393;42.158;24.748;2023-02-20T14:14:47;99997.47;;;20.60;20.29
18527;BME280;9393;42.158;24.748;2023-02-20T14:17:52;99991.91;;;20.48;20.30
18527;BME280;9393;42.158;24.748;2023-02-20T14:21:03;99990.13;;;20.28;20.53
18527;BME280;9393;42.158;24.748;2023-02-20T14:24:18;99996.28;;;20.35;20.84
18527;BME280;9393;42.158;24.748;2023-02-20T14:27:26;100002.88;;;20.17;21.08
18527;BME280;9393;42.158;24.748;2023-02-20T14:30:32;100000.84;;;20.20;21.19
18527;BME280;9393;42.158;24.748;2023-02-20T14:33:36;99986.78;;;19.91;21.33
18527;BME280;9393;42.158;24.748;2023-02-20T14:36:51;99985.91;;;19.84;21.89
18527;BME280;9393;42.158;24.748;2023-02-20T14:40:04;99986.91;;;19.62;22.75
18527;BME280;9393;42.158;24.748;2023-02-20T14:43:14;99990.25;;;19.71;22.92
18527;BME280;9393;42.158;24.748;2023-02-20T14:46:22;99998.53;;;19.82;22.81
18527;BME280;9393;42.158;24.748;2023-02-20T14:49:28;99990.38;;;19.84;22.64
18527;BME280;9393;42.158;24.748;2023-02-20T14:52:32;99998.19;;;19.71;22.91
18527;BME280;9393;42.158;24.748;2023-02-20T14:55:38;99999.16;;;19.27;23.75
18527;BME280;9393;42.158;24.748;2023-02-20T14:58:42;99994.44;;;19.08;23.77
18527;BME280;9393;42.158;24.748;2023-02-20T15:01:46;99994.97;;;19.03;23.96
18527;BME280;9393;42.158;24.748;2023-02-20T15:04:52;99997.84;;;18.87;24.15
18527;BME280;9393;42.158;24.748;2023-02-20T15:08:02;100005.03;;;18.93;24.22
18527;BME280;9393;42.158;24.748;2023-02-20T15:11:09;100009.31;;;18.94;24.83
18527;BME280;9393;42.158;24.748;2023-02-20T15:14:20;100007.88;;;18.77;25.05
18527;BME280;9393;42.158;24.748;2023-02-20T15:17:27;100012.25;;;18.70;25.32
18527;BME280;9393;42.158;24.748;2023-02-20T15:20:35;100017.16;;;18.58;25.44
18527;BME280;9393;42.158;24.748;2023-02-20T15:23:41;100026.13;;;18.49;25.80
18527;BME280;9393;42.158;24.748;2023-02-20T15:26:46;100034.94;;;18.42;25.80
18527;BME280;9393;42.158;24.748;2023-02-20T15:30:09;100042.56;;;18.22;25.11
18527;BME280;9393;42.158;24.748;2023-02-20T15:33:13;100043.94;;;18.18;24.16
18527;BME280;9393;42.158;24.748;2023-02-20T15:36:19;100043.81;;;18.11;23.85
18527;BME280;9393;42.158;24.748;2023-02-20T15:39:23;100053.78;;;18.01;22.85
18527;BME280;9393;42.158;24.748;2023-02-20T15:42:29;100047.59;;;17.94;22.44
18527;BME280;9393;42.158;24.748;2023-02-20T15:45:33;100050.00;;;17.81;22.66
18527;BME280;9393;42.158;24.748;2023-02-20T15:48:38;100061.25;;;17.75;22.86
18527;BME280;9393;42.158;24.748;2023-02-20T15:51:42;100060.00;;;17.63;23.75
18527;BME280;9393;42.158;24.748;2023-02-20T15:54:50;100063.47;;;17.55;24.30
18527;BME280;9393;42.158;24.748;2023-02-20T15:57:58;100066.56;;;17.36;24.97
18527;BME280;9393;42.158;24.748;2023-02-20T16:01:05;100071.34;;;17.33;25.06
18527;BME280;9393;42.158;24.748;2023-02-20T16:04:12;100068.47;;;17.11;25.61
18527;BME280;9393;42.158;24.748;2023-02-20T16:07:18;100080.28;;;17.24;25.70
18527;BME280;9393;42.158;24.748;2023-02-20T16:10:23;100088.72;;;17.19;25.96
18527;BME280;9393;42.158;24.748;2023-02-20T16:13:30;100095.16;;;17.16;26.01
18527;BME280;9393;42.158;24.748;2023-02-20T16:16:37;100103.75;;;17.02;25.99
18527;BME280;9393;42.158;24.748;2023-02-20T16:19:42;100100.28;;;17.02;26.08
18527;BME280;9393;42.158;24.748;2023-02-20T16:22:46;100105.72;;;17.08;26.00
18527;BME280;9393;42.158;24.748;2023-02-20T16:25:50;100117.28;;;16.91;26.44
18527;BME280;9393;42.158;24.748;2023-02-20T16:28:58;100113.19;;;16.81;26.61
18527;BME280;9393;42.158;24.748;2023-02-20T16:32:15;100135.25;;;16.88;26.63
18527;BME280;9393;42.158;24.748;2023-02-20T16:35:20;100148.94;;;16.75;26.85
18527;BME280;9393;42.158;24.748;2023-02-20T16:38:24;100153.84;;;16.70;27.12